Time;durP1;ratioP1;P1;durP2;ratioP2;P2;SDS_P1;SDS_P2;PMS_P1;PMS_P2;Temp;Humidity;BMP_temperature;BMP_pressure;BME280_temperature;BME280_humidity;BME280_pressure;Samples;Min_cycle;Max_cycle;Signal;HPM_P1;HPM_P2
2023/04/24 00:00:33;;;;;;;6.43;4.70;;;11.70;99.90;;;;;;5093412;27;20414;-72
2023/04/24 00:02:59;;;;;;;5.00;4.50;;;11.70;99.90;;;;;;5078457;28;20450;-72
2023/04/24 00:05:25;;;;;;;5.82;4.80;;;11.70;99.90;;;;;;5068628;28;20475;-72
2023/04/24 00:07:52;;;;;;;7.50;4.80;;;11.70;99.90;;;;;;5078559;27;20459;-72
2023/04/24 00:10:19;;;;;;;5.97;5.07;;;11.70;99.90;;;;;;5067268;28;20413;-72
2023/04/24 00:12:45;;;;;;;6.03;4.60;;;11.70;99.90;;;;;;5080739;28;20556;-72
2023/04/24 00:15:12;;;;;;;6.75;4.93;;;11.80;99.90;;;;;;5090748;28;20413;-72
2023/04/24 00:17:38;;;;;;;6.90;5.23;;;11.80;99.90;;;;;;5091782;27;20489;-73
2023/04/24 00:20:06;;;;;;;6.32;4.93;;;11.90;99.90;;;;;;5090994;27;20410;-72
2023/04/24 00:22:33;;;;;;;6.78;5.20;;;11.80;99.90;;;;;;5090351;27;20421;-72
2023/04/24 00:24:59;;;;;;;6.70;5.07;;;11.80;99.90;;;;;;5069233;28;20404;-72
2023/04/24 00:27:26;;;;;;;6.72;4.90;;;11.80;99.90;;;;;;5095188;28;20421;-72
2023/04/24 00:29:52;;;;;;;9.38;5.20;;;11.80;99.90;;;;;;5102702;27;20419;-72
2023/04/24 00:32:18;;;;;;;8.13;5.70;;;11.80;99.90;;;;;;5061136;28;20404;-72
2023/04/24 00:34:45;;;;;;;7.40;5.30;;;11.80;99.90;;;;;;5098850;27;20546;-72
2023/04/24 00:37:11;;;;;;;7.70;5.65;;;11.80;99.90;;;;;;5103284;27;20417;-72
2023/04/24 00:39:37;;;;;;;8.63;5.20;;;11.80;99.90;;;;;;5096999;27;20990;-72
2023/04/24 00:42:06;;;;;;;7.72;5.60;;;11.70;99.90;;;;;;5074606;28;20436;-73
2023/04/24 00:44:34;;;;;;;7.82;5.53;;;11.70;99.90;;;;;;5062567;28;21244;-72
2023/04/24 00:47:01;;;;;;;6.65;5.47;;;11.70;99.90;;;;;;5079125;28;20436;-73
2023/04/24 00:49:28;;;;;;;6.72;5.55;;;11.80;99.90;;;;;;5077694;28;20518;-73
2023/04/24 00:51:54;;;;;;;7.43;5.47;;;11.90;99.90;;;;;;5075199;28;20799;-72
2023/04/24 00:54:20;;;;;;;7.83;5.50;;;11.90;99.90;;;;;;5091625;28;20495;-73
2023/04/24 00:56:47;;;;;;;6.75;5.63;;;11.90;99.90;;;;;;5095618;28;20410;-73
2023/04/24 00:59:16;;;;;;;7.40;5.47;;;11.90;99.90;;;;;;5079555;28;20831;-75
2023/04/24 01:01:45;;;;;;;7.65;5.55;;;11.90;99.90;;;;;;5086505;28;20460;-75
2023/04/24 01:04:13;;;;;;;8.03;5.67;;;11.70;99.90;;;;;;5094378;28;21017;-75
2023/04/24 01:06:41;;;;;;;7.90;5.93;;;11.70;99.90;;;;;;5083605;28;20411;-76
2023/04/24 01:09:10;;;;;;;8.57;5.65;;;11.70;99.90;;;;;;5104852;27;20410;-72
2023/04/24 01:11:37;;;;;;;8.80;5.85;;;11.70;99.90;;;;;;5086454;28;20417;-73
2023/04/24 01:14:04;;;;;;;8.80;6.13;;;11.70;99.90;;;;;;5079625;28;20418;-72
2023/04/24 01:16:30;;;;;;;10.93;6.22;;;11.80;99.90;;;;;;5089453;28;20532;-73
2023/04/24 01:18:56;;;;;;;10.52;6.18;;;11.90;99.90;;;;;;5090535;28;20429;-72
2023/04/24 01:21:29;;;;;;;8.07;6.00;;;12.00;99.90;;;;;;5079093;28;20775;-72
2023/04/24 01:23:56;;;;;;;7.80;5.57;;;12.00;99.90;;;;;;5074635;28;20409;-72
2023/04/24 01:26:25;;;;;;;8.70;5.88;;;12.10;99.90;;;;;;5071668;28;20442;-72
2023/04/24 01:28:52;;;;;;;9.17;6.00;;;12.00;99.90;;;;;;5086448;28;20397;-72
2023/04/24 01:31:19;;;;;;;8.43;6.18;;;12.00;99.90;;;;;;5105500;28;20416;-72
2023/04/24 01:33:46;;;;;;;9.75;5.97;;;11.90;99.90;;;;;;5068441;28;20401;-72
2023/04/24 01:36:13;;;;;;;10.45;6.00;;;11.90;99.90;;;;;;5076745;28;20404;-72
2023/04/24 01:38:40;;;;;;;7.50;5.90;;;11.90;99.90;;;;;;5090343;28;20405;-72
2023/04/24 01:41:06;;;;;;;8.18;5.65;;;12.00;99.90;;;;;;5064658;28;20466;-72
2023/04/24 01:43:33;;;;;;;10.68;6.07;;;11.90;99.90;;;;;;5091702;28;20401;-72
2023/04/24 01:45:59;;;;;;;9.30;5.60;;;12.00;99.90;;;;;;5092121;28;20417;-72
2023/04/24 01:48:25;;;;;;;7.72;5.25;;;11.90;99.90;;;;;;5080854;28;20422;-72
2023/04/24 01:50:52;;;;;;;9.02;5.80;;;11.90;99.90;;;;;;5076910;28;20772;-73
2023/04/24 01:53:18;;;;;;;10.43;5.53;;;11.80;99.90;;;;;;5076933;28;20396;-72
2023/04/24 01:55:45;;;;;;;9.90;6.03;;;11.90;99.90;;;;;;5097037;28;20848;-73
2023/04/24 01:58:11;;;;;;;8.70;5.80;;;12.00;99.90;;;;;;5078106;28;21326;-72
2023/04/24 02:00:38;;;;;;;10.05;5.82;;;12.00;99.90;;;;;;5083550;28;20493;-72
2023/04/24 02:03:04;;;;;;;9.60;5.63;;;12.00;99.90;;;;;;5097608;27;20412;-72
2023/04/24 02:05:30;;;;;;;8.00;5.50;;;11.90;99.90;;;;;;5098223;27;20808;-72
2023/04/24 02:07:56;;;;;;;9.13;5.78;;;11.90;99.90;;;;;;5096860;27;20429;-72
2023/04/24 02:10:23;;;;;;;10.88;5.10;;;11.80;99.90;;;;;;5078997;28;21106;-72
2023/04/24 02:12:49;;;;;;;9.45;4.72;;;11.70;99.90;;;;;;5083639;28;20405;-72
2023/04/24 02:15:16;;;;;;;8.25;5.30;;;11.70;99.90;;;;;;5102719;27;20413;-72
2023/04/24 02:17:42;;;;;;;7.97;4.97;;;11.70;99.90;;;;;;5061629;28;20413;-73
2023/04/24 02:20:09;;;;;;;7.30;5.30;;;11.60;99.90;;;;;;5077712;28;20868;-72
2023/04/24 02:22:35;;;;;;;8.20;4.82;;;11.70;99.90;;;;;;5091026;27;20496;-72
2023/04/24 02:25:02;;;;;;;8.15;5.10;;;11.70;99.90;;;;;;5095191;27;20975;-72
2023/04/24 02:27:28;;;;;;;9.27;5.43;;;11.60;99.90;;;;;;5100975;27;20428;-72
2023/04/24 02:29:55;;;;;;;9.90;5.30;;;11.60;99.90;;;;;;5088279;27;20780;-72
2023/04/24 02:32:21;;;;;;;8.30;4.97;;;11.60;99.90;;;;;;5092773;27;20421;-72
2023/04/24 02:34:48;;;;;;;7.03;4.70;;;11.50;99.90;;;;;;5070693;27;20400;-72
2023/04/24 02:37:15;;;;;;;9.65;4.70;;;11.60;99.90;;;;;;5107533;27;20421;-72
2023/04/24 02:39:41;;;;;;;7.00;4.50;;;11.50;99.90;;;;;;5091574;27;20783;-72
2023/04/24 02:42:07;;;;;;;8.55;4.70;;;11.50;99.90;;;;;;5083526;28;20408;-73
2023/04/24 02:44:34;;;;;;;6.25;4.47;;;11.50;99.90;;;;;;5078858;28;20408;-72
2023/04/24 02:47:00;;;;;;;8.18;4.72;;;11.50;99.90;;;;;;5085335;27;20407;-73
2023/04/24 02:49:27;;;;;;;7.13;4.57;;;11.40;99.90;;;;;;5077615;28;21141;-72
2023/04/24 02:51:53;;;;;;;8.65;4.72;;;11.20;99.90;;;;;;5091871;27;20839;-73
2023/04/24 02:54:19;;;;;;;10.00;4.60;;;11.20;99.90;;;;;;5071629;28;20404;-72
2023/04/24 02:56:45;;;;;;;7.25;4.45;;;11.20;99.90;;;;;;5078308;27;20429;-72
2023/04/24 02:59:11;;;;;;;6.90;4.22;;;11.30;99.90;;;;;;5099644;27;20446;-72
2023/04/24 03:01:38;;;;;;;9.52;4.10;;;11.30;99.90;;;;;;5080970;28;20402;-72
2023/04/24 03:04:04;;;;;;;7.47;4.33;;;11.20;99.90;;;;;;5075454;28;20411;-72
2023/04/24 03:06:32;;;;;;;5.90;4.28;;;11.10;99.90;;;;;;5079505;28;20406;-73
2023/04/24 03:08:58;;;;;;;6.40;4.00;;;11.20;99.90;;;;;;5107538;27;20417;-73
2023/04/24 03:11:25;;;;;;;9.40;4.57;;;11.20;99.90;;;;;;5082349;27;20453;-73
2023/04/24 03:13:51;;;;;;;7.22;4.30;;;11.20;99.90;;;;;;5082740;28;20932;-73
2023/04/24 03:16:18;;;;;;;7.17;4.67;;;11.20;99.90;;;;;;5076765;28;20407;-73
2023/04/24 03:18:44;;;;;;;8.00;4.50;;;11.20;99.90;;;;;;5077668;27;20416;-73
2023/04/24 03:21:11;;;;;;;8.90;4.40;;;11.20;99.90;;;;;;5090685;27;20427;-73
2023/04/24 03:23:37;;;;;;;6.53;4.77;;;11.20;99.90;;;;;;5095175;27;20764;-73
2023/04/24 03:26:04;;;;;;;12.40;5.10;;;11.30;99.90;;;;;;5090502;27;20416;-73
2023/04/24 03:28:30;;;;;;;9.23;4.80;;;11.40;99.90;;;;;;5108299;27;20908;-73
2023/04/24 03:30:56;;;;;;;9.47;4.70;;;11.40;99.90;;;;;;5081721;27;20942;-73
2023/04/24 03:33:22;;;;;;;8.30;4.50;;;11.40;99.90;;;;;;5073725;28;20414;-73
2023/04/24 03:35:48;;;;;;;9.32;4.70;;;11.30;99.90;;;;;;5071063;28;20417;-73
2023/04/24 03:38:15;;;;;;;8.05;4.65;;;11.30;99.90;;;;;;5064798;27;20412;-73
2023/04/24 03:40:41;;;;;;;8.40;5.00;;;11.40;99.90;;;;;;5095603;27;20479;-73
2023/04/24 03:43:07;;;;;;;8.30;4.70;;;11.30;99.90;;;;;;5078306;28;20473;-73
2023/04/24 03:45:34;;;;;;;8.48;4.50;;;11.30;99.90;;;;;;5108630;27;20777;-73
2023/04/24 03:48:00;;;;;;;7.13;4.53;;;11.30;99.90;;;;;;5080137;27;20547;-73
2023/04/24 03:50:27;;;;;;;7.10;4.97;;;11.40;99.90;;;;;;5095817;27;20501;-73
2023/04/24 03:52:53;;;;;;;6.53;4.55;;;11.40;99.90;;;;;;5076282;28;20546;-73
2023/04/24 03:55:19;;;;;;;6.57;4.50;;;11.50;99.90;;;;;;5095371;27;20528;-73
2023/04/24 03:57:45;;;;;;;8.15;4.97;;;11.50;99.90;;;;;;5106308;27;20944;-73
2023/04/24 04:00:12;;;;;;;9.20;5.00;;;11.60;99.90;;;;;;5079636;28;20431;-73
2023/04/24 04:02:38;;;;;;;8.57;4.97;;;11.60;99.90;;;;;;5078768;28;20436;-73
2023/04/24 04:05:05;;;;;;;8.32;4.80;;;11.70;99.90;;;;;;5094936;27;20415;-73
2023/04/24 04:07:31;;;;;;;8.63;4.75;;;11.70;99.90;;;;;;5079147;28;20650;-73
2023/04/24 04:09:57;;;;;;;8.18;5.00;;;11.70;99.90;;;;;;5094579;27;20493;-73
2023/04/24 04:12:23;;;;;;;7.97;4.80;;;11.70;99.90;;;;;;5093702;27;20401;-73
2023/04/24 04:14:50;;;;;;;8.40;4.87;;;11.70;99.90;;;;;;5087266;28;20414;-73
2023/04/24 04:17:16;;;;;;;7.07;5.03;;;11.70;99.90;;;;;;5095434;27;20529;-73
2023/04/24 04:19:42;;;;;;;10.30;4.47;;;11.70;99.90;;;;;;5090773;28;20414;-73
2023/04/24 04:22:09;;;;;;;8.90;4.93;;;11.70;99.90;;;;;;5093426;28;20642;-73
2023/04/24 04:24:37;;;;;;;11.23;5.28;;;11.70;99.90;;;;;;5092377;27;20964;-74
2023/04/24 04:27:05;;;;;;;8.88;5.22;;;11.90;99.90;;;;;;5093387;27;20443;-73
2023/04/24 04:29:31;;;;;;;10.70;5.50;;;11.90;99.90;;;;;;5090482;27;20556;-73
2023/04/24 04:31:58;;;;;;;10.20;5.15;;;11.90;99.90;;;;;;5091555;27;20416;-73
2023/04/24 04:34:26;;;;;;;12.18;5.50;;;12.00;99.90;;;;;;5087808;27;20421;-73
2023/04/24 04:36:52;;;;;;;9.10;5.18;;;12.10;99.90;;;;;;5077771;27;20416;-73
2023/04/24 04:39:19;;;;;;;9.55;5.43;;;12.10;99.90;;;;;;5105186;27;20938;-73
2023/04/24 04:41:48;;;;;;;7.60;4.97;;;12.10;99.90;;;;;;5097015;28;20514;-73
2023/04/24 04:44:15;;;;;;;7.77;5.23;;;12.20;99.90;;;;;;5075597;28;21279;-74
2023/04/24 04:46:41;;;;;;;11.85;5.53;;;12.20;99.90;;;;;;5080266;28;20607;-73
2023/04/24 04:49:08;;;;;;;9.95;5.28;;;12.30;99.90;;;;;;5094953;28;20406;-73
2023/04/24 04:51:35;;;;;;;8.05;4.97;;;12.40;99.90;;;;;;5082604;28;20439;-73
2023/04/24 04:54:01;;;;;;;9.40;5.13;;;12.50;99.90;;;;;;5075263;28;21247;-73
2023/04/24 04:56:27;;;;;;;7.65;5.20;;;12.60;99.90;;;;;;5094557;28;20402;-73
2023/04/24 04:58:53;;;;;;;11.05;5.28;;;12.70;99.90;;;;;;5104446;27;20402;-73
2023/04/24 05:01:21;;;;;;;9.25;5.55;;;12.70;99.90;;;;;;5100948;27;20412;-74
2023/04/24 05:03:47;;;;;;;9.57;5.60;;;12.80;99.90;;;;;;5065669;28;20400;-74
2023/04/24 05:06:13;;;;;;;12.65;6.43;;;12.90;99.90;;;;;;5097346;28;20464;-73
2023/04/24 05:08:39;;;;;;;11.32;5.97;;;13.00;99.90;;;;;;5092746;28;20402;-73
2023/04/24 05:11:06;;;;;;;12.35;6.20;;;13.10;99.90;;;;;;5070932;28;20457;-73
2023/04/24 05:13:32;;;;;;;14.98;6.32;;;13.20;99.90;;;;;;5093034;28;20412;-74
2023/04/24 05:15:58;;;;;;;12.10;6.30;;;13.20;99.90;;;;;;5104829;28;21187;-74
2023/04/24 05:18:25;;;;;;;10.70;6.25;;;13.20;99.90;;;;;;5079229;28;20412;-74
2023/04/24 05:20:51;;;;;;;12.50;6.32;;;13.30;99.90;;;;;;5072201;28;20412;-74
2023/04/24 05:23:17;;;;;;;12.75;6.70;;;13.40;99.90;;;;;;5089777;28;20461;-73
2023/04/24 05:25:43;;;;;;;10.18;6.15;;;13.40;99.90;;;;;;5087860;28;20405;-73
2023/04/24 05:28:10;;;;;;;13.80;6.20;;;13.50;99.90;;;;;;5074692;28;20418;-74
2023/04/24 05:30:36;;;;;;;11.73;5.93;;;13.60;99.90;;;;;;5077437;28;20493;-74
2023/04/24 05:33:02;;;;;;;11.07;6.15;;;13.60;99.90;;;;;;5107971;27;20465;-74
2023/04/24 05:35:29;;;;;;;12.02;6.47;;;13.70;99.90;;;;;;5078679;28;20449;-74
2023/04/24 05:37:55;;;;;;;8.85;5.90;;;13.80;99.90;;;;;;5093916;27;20460;-74
2023/04/24 05:40:21;;;;;;;10.48;6.00;;;13.80;99.90;;;;;;5095994;27;20703;-74
2023/04/24 05:42:47;;;;;;;10.13;5.90;;;13.90;99.90;;;;;;5106376;27;20417;-74
2023/04/24 05:45:16;;;;;;;12.90;5.65;;;14.00;99.90;;;;;;5098099;27;20420;-74
2023/04/24 05:47:43;;;;;;;9.60;5.97;;;14.10;99.90;;;;;;5093755;27;20410;-73
2023/04/24 05:50:11;;;;;;;11.23;5.70;;;14.20;99.90;;;;;;5083251;27;20451;-74
2023/04/24 05:52:37;;;;;;;10.27;5.55;;;14.30;99.90;;;;;;5093146;28;20492;-74
2023/04/24 05:55:04;;;;;;;11.23;5.65;;;14.40;99.90;;;;;;5082183;28;20412;-74
2023/04/24 05:57:32;;;;;;;11.55;5.80;;;14.40;99.90;;;;;;5093175;27;20417;-74
2023/04/24 05:59:58;;;;;;;10.20;5.40;;;14.40;99.90;;;;;;5091512;28;20421;-73
2023/04/24 06:02:24;;;;;;;11.40;5.88;;;14.50;99.90;;;;;;5095376;27;21442;-74
2023/04/24 06:04:51;;;;;;;11.40;5.50;;;14.60;99.90;;;;;;5100819;27;20532;-74
2023/04/24 06:07:17;;;;;;;11.75;5.55;;;14.60;99.90;;;;;;5105451;27;20403;-73
2023/04/24 06:09:43;;;;;;;9.87;5.10;;;14.60;99.90;;;;;;5080465;27;20518;-74
2023/04/24 06:12:10;;;;;;;10.98;5.22;;;14.70;99.90;;;;;;5095317;27;20400;-74
2023/04/24 06:14:36;;;;;;;11.00;5.50;;;14.70;99.90;;;;;;5099465;27;20439;-74
2023/04/24 06:17:02;;;;;;;8.68;4.93;;;14.80;99.90;;;;;;5104063;27;20907;-74
2023/04/24 06:19:29;;;;;;;11.00;4.97;;;14.80;99.90;;;;;;5103873;27;20767;-74
2023/04/24 06:21:55;;;;;;;9.60;4.97;;;15.00;99.90;;;;;;5099954;27;20445;-74
2023/04/24 06:24:21;;;;;;;8.65;5.20;;;15.10;99.90;;;;;;5099720;27;20418;-74
2023/04/24 06:26:47;;;;;;;10.30;5.20;;;15.10;99.90;;;;;;5102646;27;21036;-74
2023/04/24 06:29:13;;;;;;;13.18;5.15;;;15.20;99.90;;;;;;5094168;28;20410;-74
2023/04/24 06:31:39;;;;;;;9.80;4.90;;;15.30;99.90;;;;;;5102958;27;20469;-74
2023/04/24 06:34:06;;;;;;;11.32;5.50;;;15.40;99.90;;;;;;5090039;27;20410;-74
2023/04/24 06:36:34;;;;;;;13.63;5.47;;;15.40;99.90;;;;;;5107958;27;21084;-74
2023/04/24 06:39:00;;;;;;;10.80;4.80;;;15.60;99.90;;;;;;5086955;28;20503;-74
2023/04/24 06:41:28;;;;;;;11.43;5.18;;;15.60;99.90;;;;;;5100391;27;20761;-74
2023/04/24 06:43:54;;;;;;;12.02;5.13;;;15.70;99.90;;;;;;5097670;27;20413;-74
2023/04/24 06:46:23;;;;;;;12.50;5.40;;;15.80;99.90;;;;;;5092998;27;20410;-74
2023/04/24 06:48:50;;;;;;;8.95;5.00;;;16.00;99.90;;;;;;5085810;28;20402;-74
2023/04/24 06:51:17;;;;;;;11.75;5.03;;;16.10;99.90;;;;;;5093038;27;21013;-74
2023/04/24 06:53:44;;;;;;;12.10;5.03;;;16.10;99.90;;;;;;5078921;27;20405;-73
2023/04/24 06:56:10;;;;;;;14.63;5.20;;;16.30;99.90;;;;;;5096781;27;20416;-74
2023/04/24 06:58:36;;;;;;;10.85;5.28;;;16.40;99.90;;;;;;5080521;28;20407;-74
2023/04/24 07:01:03;;;;;;;11.68;5.10;;;16.60;99.90;;;;;;5064023;27;20404;-74
2023/04/24 07:03:29;;;;;;;10.20;4.97;;;16.70;99.90;;;;;;5087497;27;20468;-74
2023/04/24 07:05:55;;;;;;;11.20;4.80;;;16.60;99.90;;;;;;5103758;27;20543;-74
2023/04/24 07:08:22;;;;;;;10.05;4.60;;;16.60;99.90;;;;;;5106880;27;20413;-74
2023/04/24 07:10:53;;;;;;;9.27;4.75;;;16.60;99.90;;;;;;5090652;27;20904;-74
2023/04/24 07:13:19;;;;;;;10.48;4.70;;;16.60;99.90;;;;;;5102622;27;20421;-74
2023/04/24 07:15:46;;;;;;;10.53;4.87;;;16.70;99.90;;;;;;5105807;27;20443;-74
2023/04/24 07:18:13;;;;;;;13.57;5.10;;;16.80;99.90;;;;;;5084283;28;20427;-74
2023/04/24 07:20:40;;;;;;;10.95;5.07;;;17.00;99.90;;;;;;5085567;28;20418;-74
2023/04/24 07:23:06;;;;;;;10.18;4.68;;;17.10;99.90;;;;;;5081543;28;20440;-73
2023/04/24 07:25:33;;;;;;;8.55;4.45;;;17.20;99.90;;;;;;5069995;27;20540;-74
2023/04/24 07:28:00;;;;;;;12.13;4.43;;;17.20;99.90;;;;;;5087819;28;20963;-74
2023/04/24 07:30:28;;;;;;;10.02;4.82;;;17.20;99.90;;;;;;5089746;27;20406;-74
2023/04/24 07:32:55;;;;;;;9.63;4.88;;;17.30;99.90;;;;;;5103320;27;20413;-74
2023/04/24 07:35:22;;;;;;;9.43;4.57;;;17.30;99.90;;;;;;5094795;28;20471;-74
2023/04/24 07:37:48;;;;;;;10.10;4.43;;;17.40;99.90;;;;;;5082427;28;20515;-74
2023/04/24 07:40:15;;;;;;;7.10;4.10;;;17.40;99.90;;;;;;5098312;27;20400;-74
2023/04/24 07:42:41;;;;;;;11.95;4.43;;;17.40;99.90;;;;;;5086333;27;20515;-74
2023/04/24 07:45:08;;;;;;;8.25;4.35;;;17.50;99.90;;;;;;5107896;27;21061;-74
2023/04/24 07:47:36;;;;;;;9.00;4.18;;;17.60;99.90;;;;;;5084490;27;20955;-74
2023/04/24 07:50:04;;;;;;;9.45;4.18;;;17.60;99.90;;;;;;5086009;27;20457;-74
2023/04/24 07:52:30;;;;;;;8.27;3.97;;;17.70;99.90;;;;;;5099547;27;20405;-73
2023/04/24 07:55:00;;;;;;;8.60;4.28;;;17.80;99.90;;;;;;5106434;27;20418;-74
2023/04/24 07:57:26;;;;;;;7.78;3.63;;;17.90;99.90;;;;;;5104847;27;20410;-74
2023/04/24 07:59:52;;;;;;;7.60;4.20;;;17.90;99.90;;;;;;5106864;27;20414;-74
2023/04/24 08:02:18;;;;;;;8.35;3.55;;;18.10;99.90;;;;;;5080236;28;20496;-74
2023/04/24 08:04:45;;;;;;;5.38;2.90;;;18.10;99.90;;;;;;5102603;27;20440;-74
2023/04/24 08:07:12;;;;;;;6.43;3.47;;;18.10;99.90;;;;;;5074953;27;20432;-73
2023/04/24 08:09:39;;;;;;;10.25;3.90;;;18.20;99.90;;;;;;5075360;27;20438;-74
2023/04/24 08:12:05;;;;;;;12.20;4.10;;;18.30;99.90;;;;;;5094238;27;20404;-74
2023/04/24 08:14:31;;;;;;;7.60;3.58;;;18.40;99.90;;;;;;5071071;27;20827;-74
2023/04/24 08:17:00;;;;;;;9.35;3.70;;;18.50;99.90;;;;;;5096254;27;20429;-74
2023/04/24 08:19:26;;;;;;;9.75;3.53;;;18.50;99.90;;;;;;5083934;27;20772;-74
2023/04/24 08:21:52;;;;;;;10.48;3.55;;;18.60;99.90;;;;;;5084639;27;21141;-74
2023/04/24 08:24:19;;;;;;;8.88;3.50;;;18.70;99.90;;;;;;5115170;27;20940;-74
2023/04/24 08:26:45;;;;;;;10.18;3.70;;;18.70;99.90;;;;;;5071117;28;20396;-74
2023/04/24 08:29:11;;;;;;;7.43;3.37;;;18.90;99.90;;;;;;5075965;28;20421;-74
2023/04/24 08:31:37;;;;;;;8.57;3.50;;;18.90;99.90;;;;;;5075334;28;20419;-74
2023/04/24 08:34:04;;;;;;;6.28;2.75;;;19.00;99.90;;;;;;5113437;27;20395;-74
2023/04/24 08:36:31;;;;;;;7.97;3.63;;;18.90;99.90;;;;;;5092445;28;20489;-74
2023/04/24 08:38:58;;;;;;;8.93;3.60;;;19.10;99.90;;;;;;5096505;28;20479;-74
2023/04/24 08:41:26;;;;;;;10.82;3.67;;;19.20;99.90;;;;;;5086893;28;20444;-74
2023/04/24 08:43:52;;;;;;;10.18;3.67;;;19.30;99.90;;;;;;5100083;27;20404;-74
2023/04/24 08:46:19;;;;;;;9.30;3.38;;;19.20;99.90;;;;;;5098433;28;21137;-74
2023/04/24 08:48:46;;;;;;;9.68;3.60;;;19.20;99.90;;;;;;5098943;27;20456;-74
2023/04/24 08:51:12;;;;;;;8.07;3.50;;;19.40;99.90;;;;;;5097050;28;20498;-74
2023/04/24 08:53:40;;;;;;;8.90;3.40;;;19.50;99.90;;;;;;5083986;28;20429;-74
2023/04/24 08:56:07;;;;;;;6.30;3.00;;;19.50;99.90;;;;;;5075571;28;20406;-74
2023/04/24 08:58:35;;;;;;;6.75;3.10;;;19.60;99.90;;;;;;5091817;28;20412;-74
2023/04/24 09:01:01;;;;;;;5.97;2.90;;;19.70;99.90;;;;;;5075302;28;20433;-74
2023/04/24 09:03:30;;;;;;;7.53;3.15;;;19.70;99.90;;;;;;5079150;28;21198;-74
2023/04/24 09:05:58;;;;;;;5.72;3.05;;;19.80;99.90;;;;;;5081044;28;20408;-74
2023/04/24 09:08:28;;;;;;;6.63;3.10;;;19.90;99.90;;;;;;5077896;28;20756;-74
2023/04/24 09:10:54;;;;;;;7.53;3.10;;;19.90;99.90;;;;;;5094188;28;20963;-74
2023/04/24 09:13:20;;;;;;;5.97;3.05;;;19.90;99.90;;;;;;5079002;28;20409;-74
2023/04/24 09:15:47;;;;;;;5.30;2.70;;;20.00;99.90;;;;;;5113670;28;20390;-74
2023/04/24 09:18:13;;;;;;;6.35;2.63;;;20.20;99.90;;;;;;5095985;28;20406;-74
2023/04/24 09:21:06;;;;;;;5.00;2.70;;;20.30;99.90;;;;;;5093762;28;20413;-74
2023/04/24 09:23:33;;;;;;;4.50;2.55;;;20.40;99.90;;;;;;5075324;28;20449;-74
2023/04/24 09:26:04;;;;;;;5.93;2.67;;;20.40;99.90;;;;;;5078060;28;20406;-74
2023/04/24 09:28:36;;;;;;;5.13;2.97;;;20.40;99.90;;;;;;5096677;28;20433;-74
2023/04/24 09:31:15;;;;;;;5.65;2.60;;;20.40;99.90;;;;;;5096678;28;20391;-75
2023/04/24 09:33:59;;;;;;;5.95;2.50;;;20.60;99.90;;;;;;5084769;28;20406;-74
2023/04/24 09:36:36;;;;;;;6.22;2.75;;;20.70;99.90;;;;;;5078820;28;20405;-74
2023/04/24 09:39:10;;;;;;;6.05;2.67;;;20.80;99.90;;;;;;5107025;27;20417;-74
2023/04/24 09:41:46;;;;;;;6.80;2.93;;;21.00;99.90;;;;;;5111885;28;20412;-74
2023/04/24 09:44:24;;;;;;;4.18;2.53;;;20.90;99.90;;;;;;5095831;28;20408;-74
2023/04/24 09:46:57;;;;;;;7.20;2.70;;;21.00;99.90;;;;;;5077103;28;20400;-74
2023/04/24 09:49:33;;;;;;;5.53;2.65;;;21.00;99.90;;;;;;5090361;28;20416;-74
2023/04/24 09:52:08;;;;;;;4.33;2.67;;;21.00;99.90;;;;;;5085615;28;20419;-74
2023/04/24 09:54:36;;;;;;;5.03;2.60;;;21.10;99.90;;;;;;5096063;28;20747;-75
2023/04/24 09:57:03;;;;;;;7.80;2.78;;;21.20;99.90;;;;;;5117088;27;20396;-74
2023/04/24 09:59:30;;;;;;;3.50;2.40;;;21.20;99.90;;;;;;5076295;28;20461;-74
2023/04/24 10:01:58;;;;;;;3.40;2.50;;;21.20;99.90;;;;;;5077800;28;21003;-74
2023/04/24 10:04:28;;;;;;;5.23;2.30;;;21.40;99.90;;;;;;5095769;28;20438;-74
2023/04/24 10:06:57;;;;;;;5.80;2.20;;;21.50;99.90;;;;;;5097412;28;20855;-74
2023/04/24 10:09:26;;;;;;;6.40;2.47;;;21.50;99.90;;;;;;5091250;28;21131;-74
2023/04/24 10:11:54;;;;;;;4.88;2.70;;;21.50;99.90;;;;;;5091919;28;20771;-74
2023/04/24 10:14:25;;;;;;;7.05;2.40;;;21.50;99.90;;;;;;5074051;28;20914;-74
2023/04/24 10:16:57;;;;;;;5.07;2.42;;;21.60;99.90;;;;;;5076132;28;20842;-74
2023/04/24 10:19:26;;;;;;;6.82;2.60;;;21.70;99.90;;;;;;5075397;28;20412;-74
2023/04/24 10:21:55;;;;;;;4.55;2.55;;;21.70;99.90;;;;;;5090783;28;20408;-74
2023/04/24 10:24:21;;;;;;;5.30;2.40;;;21.70;99.90;;;;;;5096353;27;20461;-74
2023/04/24 10:26:48;;;;;;;5.10;2.25;;;21.60;99.90;;;;;;5101466;27;20410;-74
2023/04/24 10:29:18;;;;;;;4.38;2.30;;;21.50;99.90;;;;;;5087680;28;20407;-74
2023/04/24 10:31:46;;;;;;;4.90;2.47;;;21.50;99.90;;;;;;5098196;28;20529;-74
2023/04/24 10:34:15;;;;;;;4.20;2.58;;;21.50;99.90;;;;;;5086352;28;20425;-74
2023/04/24 10:36:51;;;;;;;3.42;2.33;;;21.50;99.90;;;;;;5089135;27;21223;-75
2023/04/24 10:39:21;;;;;;;6.50;2.70;;;21.50;99.90;;;;;;5111542;27;21060;-74
2023/04/24 10:41:49;;;;;;;4.40;2.67;;;21.50;99.90;;;;;;5096273;28;20976;-74
2023/04/24 10:44:16;;;;;;;3.75;2.30;;;21.40;99.90;;;;;;5089236;28;20822;-74
2023/04/24 10:46:52;;;;;;;3.20;2.22;;;21.30;99.90;;;;;;5094675;28;20535;-74
2023/04/24 10:49:31;;;;;;;3.83;2.23;;;21.30;99.90;;;;;;5095553;28;20432;-75
2023/04/24 10:52:06;;;;;;;5.93;2.60;;;21.40;99.90;;;;;;5094601;28;20417;-74
2023/04/24 10:54:46;;;;;;;3.37;2.20;;;21.40;99.90;;;;;;5100862;28;20414;-74
2023/04/24 10:57:24;;;;;;;4.90;2.28;;;21.50;99.90;;;;;;5082713;28;20412;-74
2023/04/24 11:00:20;;;;;;;4.13;2.30;;;21.50;99.90;;;;;;5078429;28;20436;-74
2023/04/24 11:02:50;;;;;;;3.67;2.33;;;21.40;99.90;;;;;;5099765;27;20410;-74
2023/04/24 11:05:21;;;;;;;4.30;2.40;;;21.30;99.90;;;;;;5099018;28;20479;-74
2023/04/24 11:08:15;;;;;;;4.45;2.40;;;21.30;99.90;;;;;;5092064;28;20407;-74
2023/04/24 11:10:47;;;;;;;3.60;2.40;;;21.30;99.90;;;;;;5090419;27;20477;-74
2023/04/24 11:13:23;;;;;;;7.00;2.47;;;21.10;99.90;;;;;;5088024;28;20409;-74
2023/04/24 11:16:23;;;;;;;4.00;2.45;;;21.10;99.90;;;;;;5102604;28;20452;-74
2023/04/24 11:19:15;;;;;;;5.30;2.53;;;21.20;99.90;;;;;;5099684;28;20412;-74
2023/04/24 11:21:48;;;;;;;4.10;2.55;;;21.10;99.90;;;;;;5098318;28;20443;-74
2023/04/24 11:24:48;;;;;;;5.47;2.50;;;21.20;99.90;;;;;;5100176;27;20443;-74
2023/04/24 11:27:19;;;;;;;5.30;2.70;;;21.30;99.90;;;;;;5101207;28;20400;-74
2023/04/24 11:29:57;;;;;;;4.15;2.42;;;21.20;99.90;;;;;;5101812;27;20404;-74
2023/04/24 11:32:43;;;;;;;4.40;2.50;;;21.20;99.90;;;;;;5079842;28;20396;-74
2023/04/24 11:35:16;;;;;;;5.57;2.70;;;21.10;99.90;;;;;;5081778;27;20402;-74
2023/04/24 11:37:55;;;;;;;4.90;2.60;;;21.20;99.90;;;;;;5085135;28;20774;-74
2023/04/24 11:40:23;;;;;;;5.75;2.30;;;21.20;99.90;;;;;;5093013;28;21030;-74
2023/04/24 11:42:51;;;;;;;3.65;2.60;;;21.20;99.90;;;;;;5083084;28;20398;-74
2023/04/24 11:45:24;;;;;;;5.40;2.50;;;21.20;99.90;;;;;;5094955;28;20414;-74
2023/04/24 11:47:51;;;;;;;5.68;2.58;;;21.20;99.90;;;;;;5092071;28;20408;-75
2023/04/24 11:50:20;;;;;;;5.68;2.67;;;21.10;99.90;;;;;;5073954;28;20404;-75
2023/04/24 11:52:49;;;;;;;6.93;2.25;;;21.10;99.90;;;;;;5100132;28;20483;-74
2023/04/24 11:55:18;;;;;;;5.38;2.42;;;21.10;99.90;;;;;;5106188;27;20499;-74
2023/04/24 11:57:47;;;;;;;4.60;2.60;;;21.20;99.90;;;;;;5093469;28;20410;-75
2023/04/24 12:00:25;;;;;;;5.85;2.40;;;21.10;99.90;;;;;;5098747;28;20896;-74
2023/04/24 12:03:09;;;;;;;5.40;2.53;;;21.00;99.90;;;;;;5062310;28;20401;-74
2023/04/24 12:05:36;;;;;;;5.03;2.42;;;20.90;99.90;;;;;;5084364;28;20902;-74
2023/04/24 12:08:02;;;;;;;4.63;2.50;;;20.90;99.90;;;;;;5093099;28;20468;-74
2023/04/24 12:10:32;;;;;;;5.57;2.70;;;21.00;99.90;;;;;;5101417;28;20770;-74
2023/04/24 12:13:00;;;;;;;4.50;2.50;;;21.20;99.90;;;;;;5082835;28;20439;-74
2023/04/24 12:15:27;;;;;;;4.18;2.70;;;21.10;99.90;;;;;;5085875;28;20456;-74
2023/04/24 12:17:55;;;;;;;4.25;2.40;;;21.10;99.90;;;;;;5083995;28;20501;-75
2023/04/24 12:20:31;;;;;;;4.32;2.13;;;21.10;99.90;;;;;;5084704;28;20416;-74
2023/04/24 12:23:00;;;;;;;4.60;2.40;;;21.10;99.90;;;;;;5079966;28;20976;-74
2023/04/24 12:25:34;;;;;;;5.75;2.55;;;21.00;99.90;;;;;;5086855;27;20431;-75
2023/04/24 12:28:03;;;;;;;4.40;2.45;;;20.90;99.90;;;;;;5099124;27;20426;-74
2023/04/24 12:30:36;;;;;;;4.40;2.53;;;21.00;99.90;;;;;;5110743;27;20491;-74
2023/04/24 12:33:03;;;;;;;2.85;2.10;;;21.00;99.90;;;;;;5093205;28;21034;-75
2023/04/24 12:35:33;;;;;;;2.90;2.20;;;21.00;99.90;;;;;;5115254;27;20400;-74
2023/04/24 12:38:16;;;;;;;2.95;2.10;;;21.10;99.90;;;;;;5095869;27;20412;-74
2023/04/24 12:40:43;;;;;;;4.63;2.20;;;21.00;99.90;;;;;;5094183;28;20467;-74
2023/04/24 12:43:20;;;;;;;4.10;2.35;;;21.00;99.90;;;;;;5100559;28;20417;-74
2023/04/24 12:45:49;;;;;;;4.70;2.30;;;21.00;99.90;;;;;;5098566;27;20410;-74
2023/04/24 12:48:16;;;;;;;5.30;2.30;;;21.10;99.90;;;;;;5082165;28;20826;-74
2023/04/24 12:50:44;;;;;;;2.70;2.10;;;21.00;99.90;;;;;;5092710;28;20417;-74